createdAt,value
2023-03-30T00:00:23.419Z,97.08
2023-03-30T00:02:53.953Z,96.95
2023-03-30T00:05:23.923Z,97.05
2023-03-30T00:07:52.113Z,97.78
2023-03-30T00:10:20.291Z,98.19
2023-03-30T00:12:50.620Z,99.29
2023-03-30T00:15:21.599Z,98.97
2023-03-30T00:17:50.404Z,98.63
2023-03-30T00:20:18.625Z,98.71
2023-03-30T00:22:47.266Z,98.68
2023-03-30T00:25:16.761Z,97.92
2023-03-30T00:27:44.861Z,98.10
2023-03-30T00:30:14.381Z,97.92
2023-03-30T00:32:43.989Z,97.90
2023-03-30T00:35:12.440Z,97.59
2023-03-30T00:37:40.521Z,97.13
2023-03-30T00:40:10.501Z,96.75
2023-03-30T00:42:38.667Z,96.98
2023-03-30T00:45:10.283Z,95.94
2023-03-30T00:47:39.747Z,95.76
2023-03-30T00:50:09.930Z,94.76
2023-03-30T00:52:38.429Z,96.25
2023-03-30T00:55:07.627Z,97.38
2023-03-30T00:57:37.001Z,98.58
2023-03-30T01:00:07.034Z,98.46
2023-03-30T01:02:35.849Z,98.52
2023-03-30T01:05:04.509Z,99.25
2023-03-30T01:07:34.443Z,99.59
2023-03-30T01:10:02.963Z,99.19
2023-03-30T01:12:31.616Z,99.31
2023-03-30T01:14:59.691Z,99.50
2023-03-30T01:17:29.752Z,98.81
2023-03-30T01:20:38.539Z,97.61
2023-03-30T01:23:50.334Z,94.99
2023-03-30T01:26:38.932Z,94.85
2023-03-30T01:29:09.635Z,96.47
2023-03-30T01:31:53.864Z,97.35
2023-03-30T01:34:37.902Z,98.25
2023-03-30T01:37:28.850Z,99.02
2023-03-30T01:39:59.153Z,98.40
2023-03-30T01:42:31.210Z,96.59
2023-03-30T01:45:03.781Z,95.38
2023-03-30T01:47:35.189Z,95.16
2023-03-30T01:50:04.871Z,94.52
2023-03-30T01:52:37.032Z,93.63
2023-03-30T01:55:09.065Z,90.62
2023-03-30T01:57:38.713Z,90.05
2023-03-30T02:00:14.413Z,89.14
2023-03-30T02:02:44.759Z,87.76
2023-03-30T02:05:13.278Z,86.66
2023-03-30T02:07:41.695Z,86.42
2023-03-30T02:10:12.102Z,84.76
2023-03-30T02:12:40.255Z,84.71
2023-03-30T02:15:10.501Z,84.32
2023-03-30T02:17:38.890Z,84.43
2023-03-30T02:20:10.766Z,85.06
2023-03-30T02:22:38.823Z,84.52
2023-03-30T02:25:07.982Z,83.93
2023-03-30T02:27:38.627Z,83.75
2023-03-30T02:30:09.047Z,82.54
2023-03-30T02:32:41.323Z,83.21
2023-03-30T02:35:22.653Z,83.74
2023-03-30T02:38:16.064Z,83.42
2023-03-30T02:40:49.796Z,83.05
2023-03-30T02:43:39.166Z,82.04
2023-03-30T02:46:30.326Z,81.64
2023-03-30T02:49:04.029Z,81.84
2023-03-30T02:51:41.170Z,80.96
2023-03-30T02:54:17.199Z,80.95
2023-03-30T02:57:07.842Z,80.92
2023-03-30T02:59:39.266Z,81.69
2023-03-30T03:02:08.371Z,81.31
2023-03-30T03:04:36.711Z,82.10
2023-03-30T03:07:22.736Z,81.62
2023-03-30T03:09:51.974Z,81.69
2023-03-30T03:12:20.618Z,82.87
2023-03-30T03:14:50.227Z,83.20
2023-03-30T03:17:22.495Z,83.23
2023-03-30T03:19:50.944Z,83.75
2023-03-30T03:22:21.384Z,84.05
2023-03-30T03:24:49.520Z,84.18
2023-03-30T03:27:32.988Z,84.37
2023-03-30T03:30:15.731Z,84.28
2023-03-30T03:32:50.263Z,83.96
2023-03-30T03:35:19.022Z,84.07
2023-03-30T03:37:47.522Z,84.51
2023-03-30T03:40:16.695Z,85.03
2023-03-30T03:42:45.762Z,84.97
2023-03-30T03:45:17.114Z,85.10
2023-03-30T03:47:57.569Z,84.72
2023-03-30T03:50:44.106Z,85.70
2023-03-30T03:53:13.027Z,86.10
2023-03-30T03:55:41.658Z,86.24
2023-03-30T03:58:09.949Z,85.80
2023-03-30T04:00:39.455Z,86.42
2023-03-30T04:03:08.646Z,87.07
2023-03-30T04:05:37.231Z,86.62
2023-03-30T04:08:06.443Z,86.42
2023-03-30T04:10:34.766Z,86.74
2023-03-30T04:13:18.257Z,86.43
2023-03-30T04:15:47.760Z,86.59
2023-03-30T04:18:34.681Z,86.91
2023-03-30T04:21:23.795Z,86.81
2023-03-30T04:23:52.318Z,86.44
2023-03-30T04:26:20.413Z,86.15
2023-03-30T04:28:57.352Z,86.50
2023-03-30T04:32:02.938Z,85.98
2023-03-30T04:34:57.675Z,85.11
2023-03-30T04:37:30.397Z,85.46
2023-03-30T04:40:28.262Z,84.49
2023-03-30T04:43:07.334Z,83.17
2023-03-30T04:46:01.866Z,82.91
2023-03-30T04:49:06.863Z,82.58
2023-03-30T04:51:54.760Z,82.72
2023-03-30T04:54:41.108Z,82.64
2023-03-30T04:57:44.175Z,82.25
2023-03-30T05:00:32.190Z,82.12
2023-03-30T05:03:23.467Z,82.45
2023-03-30T05:06:16.084Z,82.68
2023-03-30T05:09:16.659Z,82.45
2023-03-30T05:12:19.827Z,82.89
2023-03-30T05:14:54.650Z,82.49
2023-03-30T05:17:41.864Z,82.30
2023-03-30T05:20:42.924Z,81.66
2023-03-30T05:23:25.551Z,81.83
2023-03-30T05:26:11.822Z,81.24
2023-03-30T05:28:51.476Z,81.84
2023-03-30T05:31:49.407Z,82.24
2023-03-30T05:34:52.470Z,83.30
2023-03-30T05:37:29.771Z,82.90
2023-03-30T05:40:22.234Z,83.53
2023-03-30T05:43:06.811Z,84.50
2023-03-30T05:45:54.669Z,84.31
2023-03-30T05:48:41.238Z,84.02
2023-03-30T05:51:18.453Z,84.02
2023-03-30T05:54:08.081Z,83.81
2023-03-30T05:56:52.548Z,85.03
2023-03-30T05:59:37.276Z,85.51
2023-03-30T06:02:28.462Z,85.92
2023-03-30T06:05:02.665Z,86.79
2023-03-30T06:07:30.881Z,86.60
2023-03-30T06:09:59.782Z,86.57
2023-03-30T06:12:31.780Z,86.40
2023-03-30T06:15:02.668Z,86.83
2023-03-30T06:17:42.766Z,86.77
2023-03-30T06:20:12.777Z,86.56
2023-03-30T06:22:45.719Z,86.98
2023-03-30T06:25:20.202Z,86.79
2023-03-30T06:27:49.685Z,86.75
2023-03-30T06:30:18.259Z,86.13
2023-03-30T06:32:50.273Z,86.34
2023-03-30T06:35:26.219Z,85.92
2023-03-30T06:37:55.223Z,86.67
2023-03-30T06:40:23.317Z,86.67
2023-03-30T06:42:54.563Z,85.81
2023-03-30T06:45:29.799Z,86.92
2023-03-30T06:47:58.414Z,87.36
2023-03-30T06:50:27.645Z,87.65
2023-03-30T06:53:08.449Z,86.74
2023-03-30T06:55:43.113Z,86.68
2023-03-30T06:58:17.881Z,85.92
2023-03-30T07:00:46.600Z,84.65
2023-03-30T07:03:33.072Z,84.72
2023-03-30T07:06:12.467Z,84.77
2023-03-30T07:08:41.602Z,84.14
2023-03-30T07:11:12.650Z,84.43
2023-03-30T07:13:43.043Z,84.35
2023-03-30T07:16:11.596Z,84.97
2023-03-30T07:18:39.748Z,84.76
2023-03-30T07:21:08.502Z,84.77
2023-03-30T07:23:40.555Z,84.99
2023-03-30T07:26:10.599Z,84.34
2023-03-30T07:28:46.739Z,84.17
2023-03-30T07:31:17.277Z,83.93
2023-03-30T07:33:45.741Z,84.29
2023-03-30T07:36:18.863Z,85.12
2023-03-30T07:38:48.623Z,85.82
2023-03-30T07:41:17.966Z,86.25
2023-03-30T07:43:51.530Z,87.15
2023-03-30T07:46:19.658Z,87.73
2023-03-30T07:48:51.096Z,87.79
2023-03-30T07:51:20.890Z,88.09
2023-03-30T07:53:57.268Z,90.36
2023-03-30T07:56:38.527Z,93.65
2023-03-30T07:59:08.848Z,95.78
2023-03-30T08:01:39.184Z,98.35
2023-03-30T08:04:27.903Z,99.96
2023-03-30T08:06:56.383Z,100.00
2023-03-30T08:09:24.939Z,100.00
2023-03-30T08:11:53.047Z,100.00
2023-03-30T08:14:23.538Z,100.00
2023-03-30T08:16:51.876Z,100.00
2023-03-30T08:19:19.975Z,100.00
2023-03-30T08:21:47.979Z,100.00
2023-03-30T08:24:16.676Z,100.00
2023-03-30T08:26:44.744Z,100.00
2023-03-30T08:29:13.146Z,100.00
2023-03-30T08:31:42.675Z,100.00
2023-03-30T08:34:11.566Z,100.00
2023-03-30T08:36:40.068Z,100.00
2023-03-30T08:39:08.848Z,100.00
2023-03-30T08:41:58.198Z,100.00
2023-03-30T08:44:34.929Z,100.00
2023-03-30T08:47:06.477Z,100.00
2023-03-30T08:49:37.358Z,100.00
2023-03-30T08:52:06.251Z,100.00
2023-03-30T08:54:34.866Z,100.00
2023-03-30T08:57:07.771Z,100.00
2023-03-30T08:59:38.861Z,100.00
2023-03-30T09:02:15.640Z,100.00
2023-03-30T09:04:55.024Z,100.00
2023-03-30T09:07:24.221Z,100.00
2023-03-30T09:09:52.614Z,100.00
2023-03-30T09:12:23.616Z,100.00
2023-03-30T09:14:53.080Z,100.00
2023-03-30T09:17:24.820Z,100.00
2023-03-30T09:19:55.376Z,100.00
2023-03-30T09:22:23.906Z,100.00
2023-03-30T09:24:52.593Z,100.00
2023-03-30T09:27:22.397Z,100.00
2023-03-30T09:29:51.724Z,100.00
2023-03-30T09:32:25.306Z,100.00
2023-03-30T09:34:55.539Z,100.00
2023-03-30T09:37:23.765Z,100.00
2023-03-30T09:39:52.031Z,100.00
2023-03-30T09:42:29.379Z,100.00
2023-03-30T09:44:58.692Z,100.00
2023-03-30T09:47:29.242Z,100.00
2023-03-30T09:49:58.896Z,100.00
2023-03-30T09:52:27.750Z,100.00
2023-03-30T09:54:55.886Z,100.00
2023-03-30T09:57:26.912Z,100.00
2023-03-30T09:59:56.021Z,100.00
2023-03-30T10:02:25.251Z,100.00
2023-03-30T10:05:03.366Z,100.00
2023-03-30T10:07:33.931Z,100.00
2023-03-30T10:10:03.280Z,100.00
2023-03-30T10:12:32.698Z,100.00
2023-03-30T10:15:04.706Z,100.00
2023-03-30T10:17:33.170Z,100.00
2023-03-30T10:20:27.952Z,100.00
2023-03-30T10:22:56.775Z,100.00
2023-03-30T10:25:25.761Z,100.00
2023-03-30T10:27:56.745Z,100.00
2023-03-30T10:30:27.241Z,100.00
2023-03-30T10:32:57.381Z,100.00
2023-03-30T10:35:27.884Z,100.00
2023-03-30T10:37:57.160Z,100.00
2023-03-30T10:40:27.327Z,100.00
2023-03-30T10:42:56.847Z,100.00
2023-03-30T10:45:29.184Z,100.00
2023-03-30T10:48:06.778Z,100.00
2023-03-30T10:50:41.856Z,100.00
2023-03-30T10:53:18.181Z,100.00
2023-03-30T10:55:50.796Z,100.00
2023-03-30T10:58:25.247Z,100.00
2023-03-30T11:01:07.796Z,100.00
2023-03-30T11:03:36.567Z,100.00
2023-03-30T11:06:10.223Z,100.00
2023-03-30T11:08:39.645Z,100.00
2023-03-30T11:11:08.152Z,100.00
2023-03-30T11:13:38.181Z,100.00
2023-03-30T11:16:08.850Z,100.00
2023-03-30T11:18:39.454Z,100.00
2023-03-30T11:21:11.740Z,100.00
2023-03-30T11:23:43.834Z,100.00
2023-03-30T11:26:13.013Z,100.00
2023-03-30T11:29:03.927Z,100.00
2023-03-30T11:31:42.161Z,100.00
2023-03-30T11:34:20.468Z,100.00
2023-03-30T11:36:57.026Z,100.00
2023-03-30T11:39:32.221Z,100.00
2023-03-30T11:42:05.892Z,100.00
2023-03-30T11:44:34.098Z,100.00
2023-03-30T11:47:10.606Z,100.00
2023-03-30T11:49:47.753Z,100.00
2023-03-30T11:52:23.498Z,100.00
2023-03-30T11:55:18.564Z,100.00
2023-03-30T11:57:48.760Z,100.00
2023-03-30T12:00:31.187Z,100.00
2023-03-30T12:03:03.834Z,100.00
2023-03-30T12:05:34.477Z,100.00
2023-03-30T12:08:07.561Z,100.00
2023-03-30T12:10:38.404Z,100.00
2023-03-30T12:13:07.000Z,100.00
2023-03-30T12:15:41.368Z,100.00
2023-03-30T12:18:15.904Z,100.00
2023-03-30T12:20:46.172Z,100.00
2023-03-30T12:23:31.805Z,100.00
2023-03-30T12:26:23.413Z,100.00
2023-03-30T12:29:35.940Z,100.00
2023-03-30T12:31:51.765Z,100.00
2023-03-30T12:34:20.094Z,100.00
2023-03-30T12:36:49.188Z,100.00
2023-03-30T12:39:21.900Z,100.00
2023-03-30T12:41:50.762Z,100.00
2023-03-30T12:44:31.669Z,100.00
2023-03-30T12:47:12.297Z,100.00
2023-03-30T12:49:47.350Z,100.00
2023-03-30T12:52:18.072Z,100.00
2023-03-30T12:55:03.010Z,100.00
2023-03-30T12:57:37.830Z,100.00
2023-03-30T13:00:41.144Z,100.00
2023-03-30T13:03:29.855Z,100.00
2023-03-30T13:05:58.887Z,100.00
2023-03-30T13:08:29.945Z,100.00
2023-03-30T13:11:09.252Z,100.00
2023-03-30T13:13:52.678Z,100.00
2023-03-30T13:17:07.571Z,100.00
2023-03-30T13:19:48.854Z,100.00
2023-03-30T13:22:25.488Z,100.00
2023-03-30T13:24:54.562Z,100.00
2023-03-30T13:27:27.216Z,100.00
2023-03-30T13:29:57.075Z,100.00
2023-03-30T13:32:46.578Z,100.00
2023-03-30T13:35:35.000Z,100.00
2023-03-30T13:38:13.469Z,100.00
2023-03-30T13:41:46.038Z,100.00
2023-03-30T13:44:23.904Z,100.00
2023-03-30T13:46:53.732Z,100.00
2023-03-30T13:49:33.612Z,100.00
2023-03-30T13:52:04.387Z,100.00
2023-03-30T13:56:09.518Z,100.00
2023-03-30T13:58:37.695Z,100.00
2023-03-30T14:01:08.730Z,100.00
2023-03-30T14:03:39.677Z,100.00
2023-03-30T14:06:08.625Z,99.79
2023-03-30T14:08:38.709Z,100.00
2023-03-30T14:11:12.471Z,97.92
2023-03-30T14:13:40.529Z,97.35
2023-03-30T14:16:09.349Z,96.03
2023-03-30T14:18:38.083Z,94.28
2023-03-30T14:21:07.242Z,94.51
2023-03-30T14:23:37.199Z,93.89
2023-03-30T14:26:06.528Z,94.60
2023-03-30T14:28:37.961Z,94.05
2023-03-30T14:31:13.896Z,94.11
2023-03-30T14:33:42.087Z,93.13
2023-03-30T14:36:12.024Z,96.12
2023-03-30T14:38:40.867Z,95.00
2023-03-30T14:41:09.980Z,95.73
2023-03-30T14:43:40.534Z,95.26
2023-03-30T14:46:10.164Z,96.15
2023-03-30T14:48:39.264Z,96.23
2023-03-30T14:51:09.619Z,94.55
2023-03-30T14:53:37.737Z,94.50
2023-03-30T14:56:07.787Z,94.57
2023-03-30T14:58:35.994Z,93.47
2023-03-30T15:01:09.818Z,93.17
2023-03-30T15:03:38.496Z,91.96
2023-03-30T15:06:07.418Z,91.80
2023-03-30T15:08:39.551Z,89.77
2023-03-30T15:11:09.152Z,90.24
2023-03-30T15:13:38.971Z,84.86
2023-03-30T15:16:08.643Z,82.71
2023-03-30T15:18:36.769Z,85.41
2023-03-30T15:21:05.124Z,90.28
2023-03-30T15:23:36.620Z,95.79
2023-03-30T15:26:08.093Z,100.00
2023-03-30T15:28:39.342Z,100.00
2023-03-30T15:31:10.903Z,100.00
2023-03-30T15:33:42.446Z,100.00
2023-03-30T15:36:13.361Z,100.00
2023-03-30T15:38:47.971Z,100.00
2023-03-30T15:41:16.754Z,100.00
2023-03-30T15:43:55.098Z,100.00
2023-03-30T15:46:24.671Z,100.00
2023-03-30T15:48:53.493Z,100.00
2023-03-30T15:51:23.645Z,100.00
2023-03-30T15:53:55.096Z,100.00
2023-03-30T15:56:25.305Z,100.00
2023-03-30T15:58:53.376Z,100.00
2023-03-30T16:01:23.394Z,100.00
2023-03-30T16:03:57.758Z,100.00
2023-03-30T16:06:26.112Z,100.00
2023-03-30T16:08:54.325Z,100.00
2023-03-30T16:11:22.493Z,100.00
2023-03-30T16:13:50.688Z,100.00
2023-03-30T16:16:19.501Z,100.00
2023-03-30T16:18:48.037Z,100.00
2023-03-30T16:21:18.951Z,100.00
2023-03-30T16:23:47.042Z,100.00
2023-03-30T16:26:15.088Z,100.00
2023-03-30T16:28:43.157Z,100.00
2023-03-30T16:31:14.461Z,100.00
2023-03-30T16:33:42.561Z,100.00
2023-03-30T16:36:13.327Z,100.00
2023-03-30T16:38:42.771Z,100.00
2023-03-30T16:41:11.722Z,100.00
2023-03-30T16:43:39.776Z,100.00
2023-03-30T16:46:08.301Z,100.00
2023-03-30T16:48:36.528Z,100.00
2023-03-30T16:51:04.827Z,100.00
2023-03-30T16:53:33.153Z,100.00
2023-03-30T16:56:02.797Z,100.00
2023-03-30T16:58:31.195Z,100.00
2023-03-30T17:01:04.155Z,100.00
2023-03-30T17:03:32.675Z,100.00
2023-03-30T17:06:00.753Z,100.00
2023-03-30T17:08:29.255Z,100.00
2023-03-30T17:10:58.437Z,100.00
2023-03-30T17:13:28.625Z,100.00
2023-03-30T17:15:58.380Z,100.00
2023-03-30T17:18:26.769Z,100.00
2023-03-30T17:20:55.118Z,100.00
2023-03-30T17:23:24.126Z,100.00
2023-03-30T17:25:53.785Z,100.00
2023-03-30T17:28:23.070Z,100.00
2023-03-30T17:30:53.234Z,100.00
2023-03-30T17:33:21.366Z,100.00
2023-03-30T17:35:51.045Z,100.00
2023-03-30T17:38:19.600Z,100.00
2023-03-30T17:40:48.665Z,100.00
2023-03-30T17:43:16.785Z,100.00
2023-03-30T17:45:46.544Z,100.00
2023-03-30T17:48:17.548Z,100.00
2023-03-30T17:50:46.744Z,100.00
2023-03-30T17:53:16.866Z,100.00
2023-03-30T17:55:45.919Z,100.00
2023-03-30T17:58:18.166Z,100.00
2023-03-30T18:00:47.460Z,100.00
2023-03-30T18:03:17.203Z,100.00
2023-03-30T18:05:46.285Z,100.00
2023-03-30T18:08:17.503Z,100.00
2023-03-30T18:10:47.876Z,100.00
2023-03-30T18:13:16.912Z,100.00
2023-03-30T18:15:46.164Z,100.00
2023-03-30T18:18:22.999Z,100.00
2023-03-30T18:20:51.661Z,100.00
2023-03-30T18:23:19.911Z,100.00
2023-03-30T18:25:48.132Z,100.00
2023-03-30T18:28:17.741Z,100.00
2023-03-30T18:30:46.301Z,100.00
2023-03-30T18:33:17.306Z,100.00
2023-03-30T18:35:46.182Z,100.00
2023-03-30T18:38:14.757Z,100.00
2023-03-30T18:40:45.200Z,100.00
2023-03-30T18:43:13.393Z,100.00
2023-03-30T18:45:42.049Z,100.00
2023-03-30T18:48:13.184Z,100.00
2023-03-30T18:50:43.317Z,100.00
2023-03-30T18:53:12.414Z,100.00
2023-03-30T18:55:41.181Z,100.00
2023-03-30T18:58:13.435Z,100.00
2023-03-30T19:00:41.979Z,100.00
2023-03-30T19:03:10.282Z,100.00
2023-03-30T19:05:39.725Z,100.00
2023-03-30T19:08:11.494Z,100.00
2023-03-30T19:10:40.157Z,100.00
2023-03-30T19:13:08.568Z,100.00
2023-03-30T19:15:37.100Z,100.00
2023-03-30T19:18:05.559Z,100.00
2023-03-30T19:20:34.658Z,100.00
2023-03-30T19:23:02.793Z,100.00
2023-03-30T19:25:32.275Z,100.00
2023-03-30T19:28:03.376Z,100.00
2023-03-30T19:30:33.265Z,100.00
2023-03-30T19:33:03.736Z,100.00
2023-03-30T19:35:32.007Z,100.00
2023-03-30T19:38:00.117Z,100.00
2023-03-30T19:40:28.279Z,100.00
2023-03-30T19:42:58.056Z,100.00
2023-03-30T19:45:26.556Z,100.00
2023-03-30T19:47:54.612Z,100.00
2023-03-30T19:50:24.953Z,100.00
2023-03-30T19:52:54.929Z,100.00
2023-03-30T19:55:22.979Z,100.00
2023-03-30T19:57:51.046Z,100.00
2023-03-30T20:00:21.224Z,100.00
2023-03-30T20:02:50.745Z,100.00
2023-03-30T20:05:19.079Z,100.00
2023-03-30T20:07:47.445Z,100.00
2023-03-30T20:10:18.870Z,100.00
2023-03-30T20:12:47.833Z,100.00
2023-03-30T20:15:15.968Z,100.00
2023-03-30T20:17:45.528Z,100.00
2023-03-30T20:20:14.424Z,100.00
2023-03-30T20:22:43.385Z,100.00
2023-03-30T20:25:12.503Z,100.00
2023-03-30T20:27:40.640Z,100.00
2023-03-30T20:30:09.747Z,100.00
2023-03-30T20:32:37.847Z,100.00
2023-03-30T20:35:08.424Z,100.00
2023-03-30T20:37:36.461Z,100.00
2023-03-30T20:40:09.589Z,100.00
2023-03-30T20:42:39.602Z,100.00
2023-03-30T20:45:09.289Z,100.00
2023-03-30T20:47:37.777Z,100.00
2023-03-30T20:50:08.692Z,100.00
2023-03-30T20:52:36.784Z,100.00
2023-03-30T20:55:05.044Z,100.00
2023-03-30T20:57:33.094Z,100.00
2023-03-30T21:00:01.545Z,100.00
2023-03-30T21:02:31.560Z,100.00
2023-03-30T21:04:59.823Z,100.00
2023-03-30T21:07:29.887Z,100.00
2023-03-30T21:09:58.008Z,100.00
2023-03-30T21:12:26.360Z,100.00
2023-03-30T21:14:54.546Z,100.00
2023-03-30T21:17:23.016Z,100.00
2023-03-30T21:19:51.089Z,100.00
2023-03-30T21:22:19.153Z,100.00
2023-03-30T21:24:48.643Z,100.00
2023-03-30T21:27:16.673Z,100.00
2023-03-30T21:29:44.758Z,100.00
2023-03-30T21:32:13.196Z,100.00
2023-03-30T21:34:41.263Z,100.00
2023-03-30T21:37:09.483Z,100.00
2023-03-30T21:39:37.582Z,100.00
2023-03-30T21:42:07.315Z,100.00
2023-03-30T21:44:36.012Z,100.00
2023-03-30T21:47:04.115Z,100.00
2023-03-30T21:49:33.063Z,100.00
2023-03-30T21:52:01.209Z,100.00
2023-03-30T21:54:29.298Z,100.00
2023-03-30T21:56:57.375Z,100.00
2023-03-30T21:59:27.394Z,100.00
2023-03-30T22:01:55.928Z,100.00
2023-03-30T22:04:24.109Z,100.00
2023-03-30T22:06:52.146Z,100.00
2023-03-30T22:09:20.252Z,100.00
2023-03-30T22:11:49.163Z,100.00
2023-03-30T22:14:17.182Z,100.00
2023-03-30T22:16:46.744Z,100.00
2023-03-30T22:19:14.918Z,100.00
2023-03-30T22:21:43.159Z,100.00
2023-03-30T22:24:12.261Z,100.00
2023-03-30T22:26:40.989Z,100.00
2023-03-30T22:29:09.042Z,100.00
2023-03-30T22:31:37.177Z,100.00
2023-03-30T22:34:07.266Z,100.00
2023-03-30T22:36:35.773Z,100.00
2023-03-30T22:39:04.193Z,100.00
2023-03-30T22:41:32.586Z,100.00
2023-03-30T22:44:00.616Z,100.00
2023-03-30T22:46:28.734Z,100.00
2023-03-30T22:48:56.788Z,100.00
2023-03-30T22:51:27.214Z,100.00
2023-03-30T22:53:57.785Z,100.00
2023-03-30T22:56:25.973Z,100.00
2023-03-30T22:58:54.044Z,100.00
2023-03-30T23:01:22.365Z,100.00
2023-03-30T23:03:50.684Z,100.00
2023-03-30T23:06:19.652Z,100.00
2023-03-30T23:08:52.705Z,100.00
2023-03-30T23:11:21.650Z,100.00
2023-03-30T23:13:49.726Z,100.00
2023-03-30T23:16:17.830Z,100.00
2023-03-30T23:18:45.945Z,100.00
2023-03-30T23:21:14.389Z,100.00
2023-03-30T23:23:42.428Z,100.00
2023-03-30T23:26:12.152Z,100.00
2023-03-30T23:28:41.338Z,100.00
2023-03-30T23:31:10.153Z,100.00
2023-03-30T23:33:38.221Z,100.00
2023-03-30T23:36:07.870Z,100.00
2023-03-30T23:38:36.201Z,100.00
2023-03-30T23:41:04.241Z,100.00
2023-03-30T23:43:33.774Z,100.00
2023-03-30T23:46:01.954Z,100.00
2023-03-30T23:48:30.071Z,100.00
2023-03-30T23:50:58.864Z,100.00
2023-03-30T23:53:27.437Z,100.00
2023-03-30T23:55:55.530Z,100.00
2023-03-30T23:58:23.633Z,100.00
